createdAt,value
2019-03-16T00:01:40.238Z,8.40
2019-03-16T00:06:44.439Z,8.40
2019-03-16T00:11:48.706Z,8.40
2019-03-16T00:16:53.082Z,8.40
2019-03-16T00:21:57.238Z,8.40
2019-03-16T00:27:01.420Z,8.40
2019-03-16T00:32:13.344Z,8.40
2019-03-16T00:37:11.628Z,8.30
2019-03-16T00:42:15.843Z,8.40
2019-03-16T00:47:20.125Z,8.40
2019-03-16T00:52:24.300Z,8.30
2019-03-16T00:57:28.672Z,8.40
2019-03-16T01:02:33.114Z,8.20
2019-03-16T01:07:37.427Z,8.30
2019-03-16T01:12:41.679Z,8.40
2019-03-16T01:17:45.907Z,8.20
2019-03-16T01:22:50.100Z,8.20
2019-03-16T01:27:54.327Z,8.40
2019-03-16T01:32:58.521Z,8.40
2019-03-16T01:38:02.684Z,8.40
2019-03-16T01:43:06.857Z,8.30
2019-03-16T01:48:11.088Z,8.40
2019-03-16T01:53:15.267Z,8.30
2019-03-16T01:58:19.427Z,8.40
2019-03-16T02:03:23.621Z,8.30
2019-03-16T02:08:27.897Z,8.40
2019-03-16T02:13:32.069Z,8.20
2019-03-16T02:18:36.425Z,8.20
2019-03-16T02:23:40.628Z,8.30
2019-03-16T02:28:44.939Z,8.40
2019-03-16T02:33:49.114Z,8.30
2019-03-16T02:38:53.356Z,8.30
2019-03-16T02:43:57.568Z,8.30
2019-03-16T02:49:01.793Z,8.40
2019-03-16T02:54:05.980Z,8.30
2019-03-16T02:59:10.201Z,8.30
2019-03-16T03:04:14.549Z,8.30
2019-03-16T03:09:18.808Z,8.30
2019-03-16T03:14:22.988Z,8.30
2019-03-16T03:19:27.228Z,8.10
2019-03-16T03:24:31.796Z,8.10
2019-03-16T03:29:35.989Z,8.10
2019-03-16T03:34:40.419Z,8.10
2019-03-16T03:39:44.751Z,8.10
2019-03-16T03:44:48.930Z,8.00
2019-03-16T03:49:53.137Z,8.00
2019-03-16T03:54:57.323Z,8.00
2019-03-16T04:00:01.514Z,8.00
2019-03-16T04:05:06.078Z,8.00
2019-03-16T04:10:10.500Z,7.90
2019-03-16T04:15:14.887Z,7.90
2019-03-16T04:20:19.074Z,8.20
2019-03-16T04:25:23.263Z,8.10
2019-03-16T04:30:27.425Z,8.40
2019-03-16T04:35:31.592Z,8.20
2019-03-16T04:40:35.751Z,8.10
2019-03-16T04:45:39.942Z,8.20
2019-03-16T04:50:44.216Z,8.20
2019-03-16T04:55:48.400Z,8.20
2019-03-16T05:00:52.645Z,8.30
2019-03-16T05:05:56.849Z,8.00
2019-03-16T05:11:01.023Z,8.20
2019-03-16T05:16:05.208Z,8.30
2019-03-16T05:21:09.375Z,8.30
2019-03-16T05:26:13.538Z,8.30
2019-03-16T05:31:17.709Z,8.30
2019-03-16T05:36:21.909Z,8.30
2019-03-16T05:41:26.074Z,8.20
2019-03-16T05:46:30.303Z,8.20
2019-03-16T05:51:34.473Z,8.20
2019-03-16T05:56:38.680Z,8.40
2019-03-16T06:01:42.889Z,8.30
2019-03-16T06:06:47.055Z,8.30
2019-03-16T06:11:51.228Z,8.40
2019-03-16T06:16:55.459Z,8.50
2019-03-16T06:21:59.645Z,8.60
2019-03-16T06:27:03.993Z,8.50
2019-03-16T06:32:08.204Z,8.50
2019-03-16T06:37:12.457Z,8.60
2019-03-16T06:42:16.630Z,8.30
2019-03-16T06:47:23.148Z,8.40
2019-03-16T06:52:26.937Z,8.00
2019-03-16T06:57:31.127Z,7.80
2019-03-16T07:02:35.297Z,7.70
2019-03-16T07:07:39.475Z,7.70
2019-03-16T07:12:43.687Z,7.80
2019-03-16T07:17:47.867Z,7.70
2019-03-16T07:22:52.043Z,7.40
2019-03-16T07:27:56.305Z,7.20
2019-03-16T07:33:00.515Z,7.30
2019-03-16T07:38:04.684Z,7.10
2019-03-16T07:43:08.983Z,7.20
2019-03-16T07:48:13.174Z,7.40
2019-03-16T07:53:17.356Z,7.50
2019-03-16T07:58:21.551Z,7.60
2019-03-16T08:03:25.741Z,7.50
2019-03-16T08:08:31.697Z,7.60
2019-03-16T08:13:35.888Z,7.70
2019-03-16T08:18:40.225Z,7.80
2019-03-16T08:23:44.469Z,7.70
2019-03-16T08:28:48.650Z,7.60
2019-03-16T08:33:52.911Z,7.10
2019-03-16T08:38:57.174Z,7.20
2019-03-16T08:44:01.438Z,7.20
2019-03-16T08:49:05.812Z,7.40
2019-03-16T11:05:47.765Z,7.60
2019-03-16T11:10:52.137Z,7.30
2019-03-16T11:15:56.302Z,7.10
2019-03-16T11:21:00.573Z,7.30
2019-03-16T11:26:04.893Z,7.30
2019-03-16T11:31:09.135Z,7.00
2019-03-16T11:36:13.370Z,7.50
2019-03-16T11:41:17.798Z,7.90
2019-03-16T11:46:22.157Z,7.90
2019-03-16T11:51:26.377Z,8.20
2019-03-16T11:56:30.578Z,8.30
2019-03-16T12:01:34.758Z,8.20
2019-03-16T12:06:38.961Z,8.50
2019-03-16T12:11:43.266Z,8.60
2019-03-16T12:16:47.435Z,8.70
2019-03-16T12:21:51.623Z,8.90
2019-03-16T12:26:55.822Z,8.90
2019-03-16T12:32:00.076Z,9.50
2019-03-16T12:37:04.259Z,9.90
2019-03-16T12:42:08.455Z,10.10
2019-03-16T12:47:12.714Z,10.30
2019-03-16T12:52:16.942Z,10.70
2019-03-16T12:57:21.541Z,10.70
2019-03-16T13:02:25.824Z,10.70
2019-03-16T13:07:30.188Z,10.80
2019-03-16T13:12:34.465Z,10.90
2019-03-16T13:17:38.714Z,11.00
2019-03-16T13:22:42.930Z,11.10
2019-03-16T13:27:48.850Z,11.10
2019-03-16T13:32:53.250Z,11.20
2019-03-16T13:37:57.552Z,11.20
2019-03-16T13:43:01.857Z,11.20
2019-03-16T13:48:06.054Z,11.30
2019-03-16T13:53:10.439Z,11.10
2019-03-16T13:58:14.652Z,11.30
2019-03-16T14:03:19.048Z,11.40
2019-03-16T14:08:23.263Z,11.40
2019-03-16T14:13:27.702Z,11.60
2019-03-16T14:18:31.945Z,11.60
2019-03-16T14:23:36.213Z,11.70
2019-03-16T14:28:40.481Z,11.70
2019-03-16T14:33:44.720Z,11.60
2019-03-16T14:38:48.985Z,11.70
2019-03-16T14:43:53.473Z,11.50
2019-03-16T14:48:57.733Z,11.30
2019-03-16T14:54:02.107Z,11.40
2019-03-16T15:34:35.880Z,11.50
2019-03-16T15:39:40.117Z,11.50
2019-03-16T15:44:44.327Z,11.60
2019-03-16T15:49:48.713Z,11.50
2019-03-16T15:54:52.995Z,11.40
2019-03-16T15:59:57.292Z,11.50
2019-03-16T16:05:01.484Z,11.30
2019-03-16T16:10:06.112Z,11.30
2019-03-16T16:15:10.720Z,11.20
2019-03-16T16:20:14.920Z,11.20
2019-03-16T16:25:19.492Z,11.10
2019-03-16T16:30:23.754Z,11.00
2019-03-16T16:35:27.975Z,11.00
2019-03-16T16:40:32.202Z,11.10
2019-03-16T16:45:36.556Z,11.20
2019-03-16T16:50:40.772Z,11.30
2019-03-16T16:55:45.124Z,11.20
2019-03-16T17:00:49.418Z,11.40
2019-03-16T17:05:53.622Z,11.40
2019-03-16T17:10:57.866Z,11.50
2019-03-16T17:16:02.373Z,11.50
2019-03-16T17:21:06.603Z,11.50
2019-03-16T17:26:11.876Z,11.50
2019-03-16T17:31:16.076Z,11.70
2019-03-16T17:36:22.289Z,11.80
2019-03-16T17:46:29.851Z,11.60
2019-03-16T17:51:34.058Z,11.60
2019-03-16T17:56:38.253Z,11.60
2019-03-16T18:01:54.035Z,11.60
2019-03-16T18:06:48.369Z,11.60
2019-03-16T18:11:52.637Z,11.50
2019-03-16T18:16:56.915Z,11.60
2019-03-16T18:22:01.138Z,11.70
2019-03-16T18:27:05.349Z,11.60
2019-03-16T18:32:09.627Z,11.60
2019-03-16T18:37:14.012Z,11.60
2019-03-16T18:42:18.254Z,11.60
2019-03-16T18:47:22.462Z,11.70
2019-03-16T18:52:26.653Z,11.50
2019-03-16T18:57:30.851Z,11.60
2019-03-16T19:02:35.057Z,11.70
2019-03-16T19:07:39.265Z,11.60
2019-03-16T19:12:43.671Z,11.70
2019-03-16T19:17:58.799Z,11.60
2019-03-16T19:22:54.318Z,11.50
2019-03-16T19:27:58.656Z,11.50
2019-03-16T19:33:02.925Z,11.50
2019-03-16T19:38:07.177Z,11.70
2019-03-16T19:43:11.448Z,11.50
2019-03-16T19:48:15.657Z,11.40
2019-03-16T19:53:19.839Z,11.50
2019-03-16T19:58:24.048Z,11.60
2019-03-16T20:03:28.229Z,11.60
2019-03-16T20:08:32.418Z,11.70
2019-03-16T20:13:36.628Z,11.70
2019-03-16T20:18:40.822Z,11.60
2019-03-16T20:23:45.081Z,11.70
2019-03-16T20:28:49.307Z,11.70
2019-03-16T20:33:53.524Z,11.80
2019-03-16T20:38:57.816Z,11.70
2019-03-16T20:44:03.667Z,11.70
2019-03-16T20:49:08.114Z,11.70
2019-03-16T20:54:12.486Z,11.80
2019-03-16T20:59:16.768Z,11.70
2019-03-16T21:04:20.981Z,11.70
2019-03-16T21:09:25.183Z,11.70
2019-03-16T21:14:29.370Z,11.50
2019-03-16T21:19:33.637Z,11.70
2019-03-16T21:24:37.844Z,11.70
2019-03-16T21:29:42.038Z,11.70
2019-03-16T21:34:46.224Z,11.60
2019-03-16T21:39:50.642Z,11.60
2019-03-16T21:44:54.854Z,11.60
2019-03-16T21:49:59.075Z,11.50
2019-03-16T21:55:03.264Z,11.50
2019-03-16T22:00:09.538Z,11.50
2019-03-16T22:05:13.865Z,11.40
2019-03-16T22:10:18.251Z,11.50
2019-03-16T22:15:22.459Z,11.40
2019-03-16T22:20:26.722Z,11.40
2019-03-16T22:25:31.009Z,11.40
2019-03-16T22:30:35.297Z,11.30
2019-03-16T22:35:39.457Z,11.20
2019-03-16T22:40:43.674Z,11.30
2019-03-16T22:45:47.897Z,11.40
2019-03-16T22:50:52.108Z,11.40
2019-03-16T22:55:56.311Z,11.40
2019-03-16T23:01:00.788Z,11.40
2019-03-16T23:06:04.991Z,11.30
2019-03-16T23:11:09.240Z,11.30
2019-03-16T23:16:13.428Z,11.30
2019-03-16T23:21:17.617Z,11.30
2019-03-16T23:26:21.863Z,11.20
2019-03-16T23:31:26.102Z,11.30
2019-03-16T23:36:30.390Z,11.30
2019-03-16T23:41:34.697Z,11.40
2019-03-16T23:46:38.895Z,11.40
2019-03-16T23:51:43.357Z,11.40
2019-03-16T23:56:47.585Z,11.30
